Terminal Aerodrome Forecast
Issued by NWS Portland, OR

Home | Current Version | Previous Version | Text Only | Print | Product List | Glossary On
Versions: 1 2 3 4 5 6 7 8 9 10 11 12 13 14 15 16 17 18 19 20 21 22 23 24 25 26 27 28 29 30 31 32 33 34 35 36 37 38 39 40 41 42 43 44 45 46 47 48
696
FTUS46 KPQR 091331 AAA
TAFEUG
TAF AMD
KEUG 091331Z 0914/1012 15004KT P6SM SCT020 BKN040 OVC070
      TEMPO 0914/0918 -SHRA BKN020 OVC040
     FM091800 19008KT P6SM -SHRA SCT025 BKN040 OVC070
     FM100400 17004KT P6SM -SHRA SCT025 BKN040 BKN070=

USA.gov is the U.S. government's official web portal to all federal, state and local government web resources and services.